Aérodrome :
LOGIN :

S'inscrire | Disclaimer

   EN    FR    IT 

 










Légende :    VFR   VFR Marginal   IFR   IFR Intensif   IFR Très Intensif
Visi : 
Plafond : 
>= 8 km
>= 3000ft
5 à 8 km
1000 à 3000 ft
1500m à 5 km
500 à 1000 ft
800 à 1500m
200 à 500 ft
< 800m
< 200 ft
Symboles :   Orages  Brouillard  Fortes neiges  Fortes précipitations  Vent > 20 kt
SIGMETs :   Divers  Orages  Givrage  Turbulence  Onde Orograph.  Cendres Volcan.







- Altitude de l'aérodrome : 527 ft
- Code IATA : DBV


LDDU - Dubrovnik

DERNIER METAR :
  • 231630Z 33016KT 300V360 CAVOK 13/01 Q1005 NOSIG

METARs EXPIRÉS :
  • 231600Z 33013KT 280V030 CAVOK 14/01 Q1005 NOSIG
  • 231530Z 32012KT 280V010 CAVOK 14/03 Q1005 TEMPO 02018G30KT
  • 231500Z 36008KT 280V090 CAVOK 15/03 Q1005 TEMPO 02018G30KT
  • 231430Z 36015G30KT 290V050 CAVOK 15/04 Q1005 NOSIG
  • 231400Z 01018G29KT 310V070 CAVOK 14/05 Q1004 NOSIG

TAF TAF LDDU
Valide du 23 à 12h jusqu'au 24 à 12h UTC


231125Z 2312/2412 34010KT 9999 FEW050 TX15/2313Z TN09/2322Z
BECMG 2312/2314 02020KT
PROB40
TEMPO 2312/2318 02025G40KT
TEMPO 2402/2409 03025G35KT
PROB40
TEMPO 2403/2410 VRB20G45KT
BECMG 2409/2411 32012KT
Pas de NOTAMs connus pour ce terrain.
1 SIGMET publié pour la FIR Zagreb (LDZO) :
 
Turbulence forte
LDZO SIGMET 10 VALID 231400/231800 LDZA
LDZO ZAGREB FIR SEV TURB FCST WI N4514 E01450 - N4224 E01829 - N4206 E01827 - N4406 E01441 - N4514 E01450 TOP FL060 STNR NC=



MET'MAP, la Météo Aéronautique d'un coup d'oeil ! - Copyright ORBIFLY Décembre 2007 - Disclaimer

ORBIFLY MET'MAP TEAM :

Programmation & Développement : Alexandra Zaïnal
Conception & Développement : Baudouin d'Aumeries
Co-Programmation & Développement : Marc-Olivier Méhu
Soutien technique & logistique : Manuel Goepfert

Contact : metmap@orbifly.com




SOURCES & CREDITS :

   NOAA